Time;durP1;ratioP1;P1;durP2;ratioP2;P2;SDS_P1;SDS_P2;PMS_P1;PMS_P2;Temp;Humidity;BMP_temperature;BMP_pressure;BME280_temperature;BME280_humidity;BME280_pressure;Samples;Min_cycle;Max_cycle;Signal;HPM_P1;HPM_P2
2022/08/30 00:01:05;;;;;;;2.22;1.25;;;;;;;16.71;89.69;102077.97;20830498;28;20502;-60
2022/08/30 00:11:27;;;;;;;5.22;1.67;;;;;;;16.51;90.67;102072.41;20853961;28;20041;-60
2022/08/30 00:21:50;;;;;;;6.10;1.50;;;;;;;16.48;90.80;102077.88;20842766;28;20083;-60
2022/08/30 00:32:12;;;;;;;3.70;1.60;;;;;;;16.33;90.99;102091.22;20819224;28;20045;-60
2022/08/30 00:42:34;;;;;;;2.92;1.38;;;;;;;16.29;91.35;102095.00;20838555;28;20405;-60
2022/08/30 00:53:00;;;;;;;5.43;1.75;;;;;;;16.17;91.44;102093.16;20830112;28;20038;-60
2022/08/30 01:03:26;;;;;;;3.08;1.48;;;;;;;16.09;91.15;102082.34;20830803;28;20049;-60
2022/08/30 01:13:50;;;;;;;4.25;1.85;;;;;;;15.91;92.06;102086.19;20830249;28;20056;-60
2022/08/30 01:24:12;;;;;;;2.03;1.60;;;;;;;15.66;93.56;102099.28;20818939;28;20048;-59
2022/08/30 01:34:34;;;;;;;3.15;1.40;;;;;;;15.68;93.07;102094.75;20833111;28;20502;-60
2022/08/30 01:44:55;;;;;;;3.08;1.70;;;;;;;15.58;93.41;102101.53;20830076;28;20060;-61
2022/08/30 01:55:17;;;;;;;2.50;1.52;;;;;;;15.50;93.65;102111.72;20826668;28;20498;-59
2022/08/30 02:05:39;;;;;;;2.53;1.50;;;;;;;15.53;93.75;102106.28;20826635;28;20048;-60
2022/08/30 02:16:00;;;;;;;3.75;1.50;;;;;;;15.37;94.00;102108.19;20818815;28;20243;-60
2022/08/30 02:26:22;;;;;;;4.93;1.70;;;;;;;15.19;94.99;102098.81;20824600;28;20045;-59
2022/08/30 02:36:44;;;;;;;3.67;1.85;;;;;;;15.30;94.76;102101.63;20817710;28;20045;-60
2022/08/30 02:47:06;;;;;;;2.08;1.77;;;;;;;15.16;94.83;102109.50;20825257;28;20041;-59
2022/08/30 02:57:27;;;;;;;3.50;1.83;;;;;;;15.06;95.70;102092.66;20840646;28;20038;-60
2022/08/30 03:07:49;;;;;;;;;;;;;;;14.87;96.51;102094.72;20828634;28;20041;-59
2022/08/30 03:18:10;;;;;;;;;;;;;;;14.82;95.61;102103.84;20823880;28;19932;-61
2022/08/30 03:28:32;;;;;;;2.85;1.67;;;;;;;14.70;95.29;102108.03;20842302;28;19929;-61
2022/08/30 03:38:54;;;;;;;2.58;1.75;;;;;;;14.50;95.71;102103.19;20838646;28;20671;-62
2022/08/30 03:49:16;;;;;;;9.38;2.70;;;;;;;14.39;96.97;102093.44;20821405;28;20375;-62
2022/08/30 03:59:38;;;;;;;5.07;2.85;;;;;;;14.33;97.23;102106.91;20845797;28;20540;-61
2022/08/30 04:10:00;;;;;;;8.00;2.40;;;;;;;14.30;96.84;102109.72;20828542;28;20552;-61
2022/08/30 04:20:22;;;;;;;6.07;2.25;;;;;;;14.33;96.70;102102.53;20828448;28;20059;-61
2022/08/30 04:30:45;;;;;;;3.45;2.28;;;;;;;14.42;95.32;102116.84;20835676;28;20037;-61
2022/08/30 04:41:11;;;;;;;;;;;;;;;14.27;96.31;102115.13;20825078;28;20055;-62
2022/08/30 04:51:32;;;;;;;11.13;2.60;;;;;;;14.51;94.16;102120.63;20836456;28;19920;-61
2022/08/30 05:01:54;;;;;;;;;;;;;;;14.56;94.35;102129.03;20830371;28;20139;-61
2022/08/30 05:12:15;;;;;;;3.20;1.93;;;;;;;14.77;93.92;102127.75;20824555;28;19924;-60
2022/08/30 05:22:38;;;;;;;;;;;;;;;14.98;92.73;102129.06;20832973;28;20053;-61
2022/08/30 05:33:01;;;;;;;3.17;1.92;;;;;;;15.13;91.96;102130.75;20821669;28;19924;-60
2022/08/30 05:43:23;;;;;;;4.15;2.13;;;;;;;15.27;91.02;102133.38;20827879;28;20484;-59
2022/08/30 05:53:52;;;;;;;2.47;1.40;;;;;;;15.19;91.41;102143.47;20837464;28;20049;-60
2022/08/30 06:04:14;;;;;;;11.77;2.08;;;;;;;15.34;90.79;102145.19;20821838;28;20041;-60
2022/08/30 06:14:37;;;;;;;5.90;2.17;;;;;;;15.39;91.20;102147.50;20812685;28;20041;-60
2022/08/30 06:24:59;;;;;;;2.90;1.67;;;;;;;15.51;91.39;102147.59;20838060;28;20486;-60
2022/08/30 06:35:20;;;;;;;;;;;;;;;15.49;90.71;102149.47;20832779;28;20044;-60
2022/08/30 06:45:42;;;;;;;6.07;2.17;;;;;;;15.49;90.19;102155.56;20828459;28;20108;-60
2022/08/30 06:56:07;;;;;;;4.38;1.80;;;;;;;15.54;89.82;102161.38;20829922;28;20040;-60
2022/08/30 07:06:29;;;;;;;5.35;2.17;;;;;;;15.76;88.79;102153.81;20818435;28;20397;-60
2022/08/30 07:16:50;;;;;;;3.42;1.52;;;;;;;16.06;87.68;102151.78;20850486;28;20029;-60
2022/08/30 07:27:13;;;;;;;6.38;1.60;;;;;;;16.38;85.40;102152.31;20823619;28;20573;-60
2022/08/30 07:37:35;;;;;;;2.63;1.17;;;;;;;16.52;83.99;102164.44;20830957;28;20072;-60
2022/08/30 07:47:57;;;;;;;1.67;0.98;;;;;;;16.67;82.61;102160.75;20841066;28;20068;-60
2022/08/30 07:58:19;;;;;;;2.30;0.98;;;;;;;16.96;81.75;102183.28;20831159;28;20049;-60
2022/08/30 08:08:42;;;;;;;4.20;1.00;;;;;;;17.16;79.82;102190.66;20827005;28;20053;-60
2022/08/30 08:19:07;;;;;;;4.20;1.20;;;;;;;17.30;80.92;102182.66;20832358;28;20391;-61
2022/08/30 08:29:29;;;;;;;3.65;0.98;;;;;;;17.54;82.71;102175.63;20832898;28;20093;-60
2022/08/30 08:39:51;;;;;;;2.92;1.13;;;;;;;17.82;83.32;102181.44;20837513;28;20040;-60
2022/08/30 08:50:17;;;;;;;3.13;1.20;;;;;;;18.27;81.98;102171.94;20830105;28;20041;-60
2022/08/30 09:00:39;;;;;;;3.35;1.10;;;;;;;18.46;81.15;102173.06;20833279;28;20040;-61
2022/08/30 09:11:05;;;;;;;4.88;1.55;;;;;;;18.91;79.30;102186.25;20832131;28;20040;-61
2022/08/30 09:21:27;;;;;;;3.50;1.05;;;;;;;18.94;78.84;102190.47;20825729;28;20064;-61
2022/08/30 09:31:52;;;;;;;7.45;1.10;;;;;;;19.26;77.69;102179.06;20828800;28;20479;-61
2022/08/30 09:42:35;;;;;;;3.78;0.80;;;;;;;19.51;76.18;102169.06;20824728;28;20444;-61
2022/08/30 09:53:33;;;;;;;2.15;0.98;;;;;;;19.48;76.03;102166.66;20819551;28;20045;-61
2022/08/30 10:04:13;;;;;;;3.92;1.10;;;;;;;19.83;75.74;102167.31;20834220;28;20136;-62
2022/08/30 10:15:08;;;;;;;3.80;0.98;;;;;;;20.35;72.16;102153.25;20827188;28;20053;-62
2022/08/30 10:25:35;;;;;;;1.25;0.88;;;;;;;19.90;73.99;102151.75;20822631;28;20081;-61
2022/08/30 10:35:59;;;;;;;2.72;0.90;;;;;;;20.05;73.97;102155.81;20828453;28;20056;-62
2022/08/30 10:46:32;;;;;;;1.73;0.70;;;;;;;20.24;74.04;102150.66;20819049;28;20523;-61
2022/08/30 10:56:56;;;;;;;1.35;0.82;;;;;;;20.38;73.84;102149.38;20823496;28;20098;-62
2022/08/30 11:07:40;;;;;;;1.10;0.65;;;;;;;20.31;73.95;102146.53;20840462;28;20049;-61
2022/08/30 11:18:10;;;;;;;2.35;1.00;;;;;;;20.51;72.98;102138.56;20827229;28;20052;-60
2022/08/30 11:28:34;;;;;;;2.67;0.70;;;;;;;20.73;73.93;102136.63;20834808;28;20044;-60
2022/08/30 11:39:02;;;;;;;1.15;0.85;;;;;;;20.42;73.36;102126.94;20845165;28;20486;-60
2022/08/30 11:50:02;;;;;;;1.10;0.60;;;;;;;20.90;72.06;102125.44;20841247;28;20041;-60
2022/08/30 12:00:44;;;;;;;1.17;0.80;;;;;;;21.31;69.49;102112.00;20840445;28;20133;-60
2022/08/30 12:11:11;;;;;;;1.88;0.70;;;;;;;21.68;69.06;102103.31;20831338;28;20049;-63
2022/08/30 12:21:35;;;;;;;1.77;0.70;;;;;;;21.28;69.02;102101.66;20838681;28;20060;-61
2022/08/30 12:32:20;;;;;;;0.70;0.70;;;;;;;20.80;69.01;102098.03;20845897;28;20041;-62
2022/08/30 12:42:59;;;;;;;2.17;0.80;;;;;;;22.24;64.58;102090.13;20827783;28;20055;-62
2022/08/30 12:53:28;;;;;;;2.47;0.70;;;;;;;21.63;67.25;102086.13;20829543;28;20477;-62
2022/08/30 13:03:58;;;;;;;1.45;0.65;;;;;;;21.85;65.29;102067.25;20831367;28;20058;-62
2022/08/30 13:14:23;;;;;;;0.68;0.60;;;;;;;21.93;64.79;102054.13;20828408;28;20049;-62
2022/08/30 13:24:45;;;;;;;1.00;0.70;;;;;;;21.83;67.05;102054.13;20868398;28;20040;-60
2022/08/30 13:35:11;;;;;;;1.65;0.40;;;;;;;21.92;64.68;102049.78;20800932;28;20048;-61
2022/08/30 13:45:32;;;;;;;6.28;0.73;;;;;;;22.15;66.04;102048.47;20806554;28;20060;-59
2022/08/30 13:56:03;;;;;;;2.03;0.43;;;;;;;21.81;63.41;102047.28;20811556;28;20041;-59
2022/08/30 14:06:25;;;;;;;0.52;0.50;;;;;;;21.75;64.80;102040.72;20809417;28;20068;-60
2022/08/30 14:16:54;;;;;;;5.57;0.60;;;;;;;21.72;61.64;102041.00;20807783;28;20056;-60
2022/08/30 14:27:16;;;;;;;0.60;0.57;;;;;;;21.73;62.04;102047.13;20797063;28;20114;-60
2022/08/30 14:37:38;;;;;;;1.85;0.80;;;;;;;22.15;63.25;102035.19;20806153;28;20041;-60
2022/08/30 14:48:02;;;;;;;1.17;0.60;;;;;;;22.28;62.26;102033.91;20831532;28;20065;-60
2022/08/30 14:58:31;;;;;;;1.48;0.70;;;;;;;22.15;62.95;102032.53;20819356;28;20057;-59
2022/08/30 15:08:54;;;;;;;2.13;0.77;;;;;;;22.32;61.67;102023.81;20819855;28;22032;-60
2022/08/30 15:19:16;;;;;;;0.55;0.52;;;;;;;22.57;63.60;102013.41;20822512;28;20402;-60
2022/08/30 15:29:37;;;;;;;2.65;0.68;;;;;;;22.23;61.29;102014.06;20820536;28;20468;-60
2022/08/30 15:39:59;;;;;;;3.70;0.70;;;;;;;22.37;61.12;102006.47;20827933;28;20045;-60
2022/08/30 15:50:25;;;;;;;2.42;0.80;;;;;;;22.41;62.12;101998.06;20817819;28;20724;-60
2022/08/30 16:00:47;;;;;;;2.03;0.80;;;;;;;22.14;62.86;102002.47;20813672;28;20528;-60
2022/08/30 16:11:11;;;;;;;1.85;0.80;;;;;;;22.02;63.58;102013.41;20829491;28;20517;-60
2022/08/30 16:21:35;;;;;;;4.90;0.70;;;;;;;21.72;64.28;102000.31;20819783;28;20053;-63
2022/08/30 16:31:58;;;;;;;6.03;0.82;;;;;;;21.51;65.51;101989.00;20814656;28;20045;-65
2022/08/30 16:42:20;;;;;;;2.40;0.80;;;;;;;21.63;65.98;101995.88;20824015;28;20049;-63
2022/08/30 16:52:42;;;;;;;6.32;1.02;;;;;;;21.77;64.33;101990.13;20819788;28;20049;-63
2022/08/30 17:03:07;;;;;;;3.50;0.93;;;;;;;21.66;64.43;101995.59;20817113;28;20048;-63
2022/08/30 17:13:31;;;;;;;1.00;0.77;;;;;;;21.37;65.58;101992.06;20809859;28;20049;-63
2022/08/30 17:23:53;;;;;;;1.65;0.77;;;;;;;21.28;66.31;102003.50;20799541;28;20048;-65
2022/08/30 17:34:23;;;;;;;0.80;0.70;;;;;;;21.31;64.68;102008.53;20819235;28;20045;-63
2022/08/30 17:44:46;;;;;;;1.17;1.05;;;;;;;21.16;65.81;102017.88;20830066;28;20085;-63
2022/08/30 17:55:10;;;;;;;5.13;1.10;;;;;;;20.92;66.10;102038.63;20823335;28;20056;-64
2022/08/30 18:05:31;;;;;;;2.75;0.80;;;;;;;20.83;65.93;102044.72;20828745;28;20062;-63
2022/08/30 18:16:00;;;;;;;2.83;0.70;;;;;;;20.60;67.35;102053.81;20806981;28;20509;-61
2022/08/30 18:26:23;;;;;;;0.90;0.85;;;;;;;20.54;66.07;102077.38;20822188;28;20076;-61
2022/08/30 18:36:45;;;;;;;2.83;0.90;;;;;;;20.38;65.76;102096.38;20809017;28;20080;-59
2022/08/30 18:47:08;;;;;;;3.15;0.90;;;;;;;20.37;65.86;102093.03;20807154;28;20106;-59
2022/08/30 18:57:32;;;;;;;3.10;0.80;;;;;;;20.28;65.80;102099.09;20814792;28;20045;-59
2022/08/30 19:07:56;;;;;;;1.00;0.82;;;;;;;20.16;67.01;102108.09;20825427;28;20053;-59
2022/08/30 19:18:20;;;;;;;2.33;0.90;;;;;;;19.95;66.59;102107.19;20822093;28;20037;-59
2022/08/30 19:28:42;;;;;;;4.03;0.73;;;;;;;19.87;67.13;102120.22;20835968;28;20045;-59
2022/08/30 19:39:04;;;;;;;2.33;0.93;;;;;;;19.51;67.19;102128.53;20839397;28;20052;-59
2022/08/30 19:49:26;;;;;;;3.15;1.00;;;;;;;19.33;68.11;102130.03;20854058;28;20059;-60
2022/08/30 19:59:47;;;;;;;1.23;1.00;;;;;;;19.23;68.30;102139.63;20834737;28;20045;-60
2022/08/30 20:10:11;;;;;;;1.80;1.00;;;;;;;19.05;67.96;102143.72;20827030;28;20056;-60
2022/08/30 20:20:33;;;;;;;1.33;0.60;;;;;;;18.85;68.18;102155.00;20834560;28;20052;-60
2022/08/30 20:30:57;;;;;;;2.20;0.70;;;;;;;18.68;68.36;102160.75;20840404;28;20041;-61
2022/08/30 20:41:19;;;;;;;0.75;0.75;;;;;;;18.43;69.78;102179.44;20847981;28;20046;-59
2022/08/30 20:51:40;;;;;;;1.48;0.70;;;;;;;18.42;69.86;102177.75;20836764;28;20356;-59
2022/08/30 21:02:03;;;;;;;2.67;0.70;;;;;;;18.26;69.02;102180.81;20830782;28;20047;-60
2022/08/30 21:12:25;;;;;;;0.75;0.73;;;;;;;18.19;68.09;102184.84;20827969;28;20131;-60
2022/08/30 21:22:46;;;;;;;2.80;0.85;;;;;;;18.15;66.55;102188.66;20835643;28;20056;-60
2022/08/30 21:33:08;;;;;;;1.63;0.65;;;;;;;17.96;65.52;102198.88;20825430;28;20056;-60
2022/08/30 21:43:29;;;;;;;0.90;0.50;;;;;;;17.92;63.49;102202.69;20832971;28;20045;-60
2022/08/30 21:53:51;;;;;;;1.80;0.50;;;;;;;17.87;60.87;102199.56;20840732;28;20406;-60
2022/08/30 22:04:14;;;;;;;1.42;0.40;;;;;;;17.74;59.60;102196.13;20828633;28;20508;-60
2022/08/30 22:14:35;;;;;;;2.50;0.47;;;;;;;17.60;58.34;102215.59;20828663;28;20529;-59
2022/08/30 22:24:57;;;;;;;0.43;0.43;;;;;;;17.57;58.82;102222.88;20832962;28;20041;-60
2022/08/30 22:35:19;;;;;;;1.95;0.40;;;;;;;17.51;58.15;102216.25;20827382;28;20046;-58
2022/08/30 22:45:40;;;;;;;0.57;0.30;;;;;;;17.36;58.34;102239.38;20841611;28;20053;-59
2022/08/30 22:56:15;;;;;;;0.30;0.30;;;;;;;17.25;59.28;102247.13;20826036;28;20103;-60
2022/08/30 23:06:36;;;;;;;6.82;0.50;;;;;;;16.65;60.00;102248.72;20843312;28;20509;-59
2022/08/30 23:16:58;;;;;;;0.93;0.45;;;;;;;16.59;60.55;102247.31;20847610;28;20413;-59
